createdAt,value
2018-09-02T00:03:55.958Z,6.00
2018-09-02T00:13:21.392Z,9.00
2018-09-02T00:15:49.148Z,9.40
2018-09-02T00:18:15.623Z,8.60
2018-09-02T00:20:42.518Z,7.80
2018-09-02T00:23:09.006Z,8.80
2018-09-02T00:25:35.468Z,6.20
2018-09-02T00:28:02.462Z,6.60
2018-09-02T00:42:59.915Z,6.80
2018-09-02T00:49:19.295Z,7.40
2018-09-02T00:58:49.641Z,7.00
2018-09-02T01:01:16.304Z,7.80
2018-09-02T01:03:43.352Z,6.00
2018-09-02T01:06:09.825Z,9.00
2018-09-02T01:08:36.301Z,6.80
2018-09-02T01:22:49.117Z,7.00
2018-09-02T01:25:15.780Z,7.00
2018-09-02T01:27:42.939Z,7.00
2018-09-02T01:30:09.604Z,4.40
2018-09-02T01:32:36.196Z,7.00
2018-09-02T01:35:02.725Z,7.00
2018-09-02T01:37:29.778Z,7.80
2018-09-02T01:39:56.485Z,7.80
2018-09-02T01:42:22.942Z,5.20
2018-09-02T01:44:49.841Z,7.40
2018-09-02T01:47:16.333Z,8.20
2018-09-02T01:49:42.885Z,8.20
2018-09-02T01:52:09.737Z,9.00
2018-09-02T01:54:36.217Z,7.40
2018-09-02T01:57:02.677Z,7.00
2018-09-02T01:59:29.662Z,9.40
2018-09-02T02:01:56.150Z,10.60
2018-09-02T02:04:22.663Z,10.20
2018-09-02T02:06:49.548Z,10.20
2018-09-02T02:09:16.043Z,9.00
2018-09-02T02:11:42.541Z,7.00
2018-09-02T02:14:09.482Z,8.60
2018-09-02T02:16:35.970Z,9.60
2018-09-02T02:19:02.466Z,10.00
2018-09-02T02:21:30.063Z,9.00
2018-09-02T02:23:56.534Z,10.40
2018-09-02T02:31:36.993Z,9.60
2018-09-02T02:34:03.689Z,12.40
2018-09-02T02:53:37.400Z,10.40
2018-09-02T02:56:04.713Z,10.00
2018-09-02T02:58:31.226Z,12.00
2018-09-02T03:00:58.115Z,11.20
2018-09-02T03:03:24.592Z,11.20
2018-09-02T03:05:51.075Z,10.00
2018-09-02T03:08:17.588Z,12.20
2018-09-02T03:10:44.496Z,12.20
2018-09-02T03:13:10.978Z,12.60
2018-09-02T03:15:37.456Z,13.40
2018-09-02T03:18:04.376Z,15.60
2018-09-02T03:20:30.905Z,12.40
2018-09-02T03:22:57.365Z,9.20
2018-09-02T03:25:24.283Z,12.80
2018-09-02T03:27:50.765Z,12.60
2018-09-02T03:30:17.246Z,12.60
2018-09-02T03:32:43.779Z,6.00
2018-09-02T03:35:10.598Z,15.80
2018-09-02T03:37:37.065Z,14.20
2018-09-02T03:40:03.566Z,12.60
2018-09-02T03:42:30.505Z,14.60
2018-09-02T03:44:56.993Z,13.80
2018-09-02T03:47:23.492Z,12.40
2018-09-02T03:49:49.990Z,12.80
2018-09-02T03:52:16.542Z,10.80
2018-09-02T03:54:43.002Z,12.20
2018-09-02T03:57:09.469Z,14.60
2018-09-02T03:59:36.349Z,12.40
2018-09-02T04:02:02.836Z,12.80
2018-09-02T04:04:29.375Z,9.80
2018-09-02T04:06:55.889Z,7.80
2018-09-02T04:09:22.744Z,10.00
2018-09-02T04:11:49.237Z,10.00
2018-09-02T04:14:15.753Z,9.20
2018-09-02T04:16:42.262Z,12.40
2018-09-02T04:19:09.164Z,12.40
2018-09-02T04:21:35.653Z,13.40
2018-09-02T04:24:02.141Z,14.60
2018-09-02T04:26:28.625Z,13.00
2018-09-02T04:28:55.496Z,12.60
2018-09-02T04:31:22.026Z,12.40
2018-09-02T04:33:48.572Z,15.80
2018-09-02T04:36:15.395Z,13.00
2018-09-02T04:38:41.845Z,9.60
2018-09-02T04:41:08.335Z,10.80
2018-09-02T04:43:35.197Z,10.00
2018-09-02T04:46:01.655Z,12.80
2018-09-02T04:48:28.113Z,15.00
2018-09-02T04:50:54.627Z,16.80
2018-09-02T04:53:21.110Z,15.20
2018-09-02T04:55:47.602Z,13.40
2018-09-02T04:58:14.429Z,14.20
2018-09-02T05:00:40.913Z,16.00
2018-09-02T05:03:07.394Z,15.00
2018-09-02T05:05:34.343Z,16.00
2018-09-02T05:08:00.814Z,14.60
2018-09-02T05:10:27.261Z,10.40
2018-09-02T05:12:53.742Z,12.00
2018-09-02T05:15:20.658Z,15.20
2018-09-02T05:17:47.118Z,12.20
2018-09-02T05:20:13.582Z,11.20
2018-09-02T05:22:40.360Z,9.00
2018-09-02T05:25:06.820Z,11.60
2018-09-02T05:27:33.301Z,12.00
2018-09-02T05:29:59.784Z,12.20
2018-09-02T05:32:26.705Z,9.60
2018-09-02T05:34:53.193Z,12.40
2018-09-02T05:37:19.704Z,10.00
2018-09-02T05:39:46.435Z,16.00
2018-09-02T05:42:13.261Z,10.40
2018-09-02T05:44:40.373Z,8.20
2018-09-02T05:47:06.868Z,12.40
2018-09-02T05:54:42.431Z,13.00
2018-09-02T06:10:34.062Z,9.20
2018-09-02T06:56:46.542Z,10.40
2018-09-02T07:03:32.659Z,9.00
2018-09-02T07:05:59.168Z,10.00
2018-09-02T07:08:26.168Z,9.20
2018-09-02T07:10:52.646Z,12.40
2018-09-02T07:13:19.136Z,11.20
2018-09-02T07:15:46.110Z,10.00
2018-09-02T07:18:13.266Z,9.40
2018-09-02T07:39:54.906Z,4.00
2018-09-02T07:51:23.651Z,7.00
2018-09-02T08:44:35.693Z,3.40
2018-09-02T08:47:02.215Z,3.80
2018-09-02T08:49:29.251Z,3.00
2018-09-02T09:00:23.179Z,3.00
2018-09-02T09:38:23.443Z,3.00
2018-09-02T09:47:17.243Z,2.60
2018-09-02T10:05:39.511Z,2.20
2018-09-02T10:09:22.987Z,2.60
2018-09-02T10:18:21.922Z,4.00
2018-09-02T10:20:48.694Z,4.00
2018-09-02T10:28:53.670Z,3.40
2018-09-02T10:45:26.225Z,5.20
2018-09-02T10:58:10.951Z,4.00
2018-09-02T11:00:37.520Z,3.80
2018-09-02T11:03:04.613Z,4.00
2018-09-02T11:16:47.731Z,3.80
2018-09-02T11:23:54.169Z,4.60
2018-09-02T11:26:21.588Z,4.00
2018-09-02T11:29:48.026Z,5.00
2018-09-02T11:32:14.680Z,4.80
2018-09-02T11:34:41.295Z,2.80
2018-09-02T11:43:19.850Z,2.00
2018-09-02T11:55:00.610Z,3.20
2018-09-02T12:08:22.418Z,2.80
2018-09-02T12:28:29.987Z,2.00
2018-09-02T12:30:56.754Z,3.20
2018-09-02T12:44:56.260Z,2.80
2018-09-02T15:06:50.195Z,2.20
2018-09-02T16:34:05.843Z,2.80
2018-09-02T16:41:07.704Z,3.80
2018-09-02T16:44:55.629Z,3.00
2018-09-02T19:24:18.718Z,2.20
2018-09-02T19:26:45.401Z,3.00
2018-09-02T19:46:17.676Z,4.00
2018-09-02T19:54:23.893Z,3.00
2018-09-02T20:09:51.702Z,3.00
2018-09-02T20:19:16.432Z,3.00
2018-09-02T20:43:22.409Z,3.00
2018-09-02T20:45:50.481Z,2.80
2018-09-02T20:48:17.000Z,3.00
2018-09-02T20:53:21.662Z,3.00
2018-09-02T20:55:48.133Z,4.00
2018-09-02T20:58:15.611Z,4.00
2018-09-02T21:00:43.317Z,5.20
